createdAt,value
2022-12-04T00:01:19.714Z,35.90
2022-12-04T00:03:49.542Z,33.42
2022-12-04T00:06:21.339Z,34.33
2022-12-04T00:08:53.878Z,33.67
2022-12-04T00:11:24.925Z,31.33
2022-12-04T00:13:54.392Z,34.80
2022-12-04T00:16:30.101Z,33.83
2022-12-04T00:19:00.272Z,40.37
2022-12-04T00:21:31.202Z,36.33
2022-12-04T00:24:00.734Z,37.15
2022-12-04T00:26:31.294Z,34.50
2022-12-04T00:29:01.609Z,35.78
2022-12-04T00:31:32.389Z,36.50
2022-12-04T00:34:02.506Z,38.80
2022-12-04T00:36:34.104Z,35.85
2022-12-04T00:39:05.281Z,35.38
2022-12-04T00:41:35.065Z,38.28
2022-12-04T00:44:05.161Z,32.57
2022-12-04T00:46:34.612Z,30.85
2022-12-04T00:49:04.241Z,39.03
2022-12-04T00:51:34.993Z,36.20
2022-12-04T00:54:04.352Z,30.00
2022-12-04T00:56:36.261Z,35.07
2022-12-04T00:59:05.709Z,32.70
2022-12-04T01:01:35.345Z,39.22
2022-12-04T01:04:08.133Z,40.20
2022-12-04T01:06:39.352Z,36.90
2022-12-04T01:09:09.195Z,36.97
2022-12-04T01:11:39.505Z,37.47
2022-12-04T01:14:10.349Z,35.00
2022-12-04T01:16:41.189Z,42.10
2022-12-04T01:19:14.209Z,36.75
2022-12-04T01:21:45.100Z,38.77
2022-12-04T01:24:14.624Z,35.25
2022-12-04T01:26:44.113Z,36.30
2022-12-04T01:29:13.574Z,36.22
2022-12-04T01:31:43.214Z,41.05
2022-12-04T01:34:13.249Z,36.40
2022-12-04T01:36:42.912Z,39.80
2022-12-04T01:39:13.957Z,39.83
2022-12-04T01:41:43.604Z,35.53
2022-12-04T01:44:16.764Z,39.67
2022-12-04T01:46:51.772Z,44.63
2022-12-04T01:49:25.563Z,33.60
2022-12-04T01:51:59.492Z,34.58
2022-12-04T01:54:33.702Z,43.83
2022-12-04T01:57:08.420Z,34.92
2022-12-04T01:59:45.122Z,38.83
2022-12-04T02:02:19.277Z,35.75
2022-12-04T02:04:49.910Z,33.90
2022-12-04T02:07:21.203Z,41.35
2022-12-04T02:09:56.464Z,37.95
2022-12-04T02:12:33.880Z,40.53
2022-12-04T02:15:10.542Z,41.53
2022-12-04T02:17:45.981Z,35.60
2022-12-04T02:20:24.723Z,39.90
2022-12-04T02:23:30.982Z,36.40
2022-12-04T02:26:18.314Z,41.03
2022-12-04T02:28:53.182Z,33.38
2022-12-04T02:31:29.120Z,33.58
2022-12-04T02:34:03.092Z,28.65
2022-12-04T02:36:37.921Z,31.30
2022-12-04T02:39:14.105Z,31.03
2022-12-04T02:41:48.480Z,28.27
2022-12-04T02:44:23.382Z,29.40
2022-12-04T02:46:59.347Z,32.47
2022-12-04T02:49:34.231Z,27.77
2022-12-04T02:52:09.485Z,26.70
2022-12-04T02:54:42.888Z,27.95
2022-12-04T02:57:16.786Z,31.85
2022-12-04T02:59:50.767Z,28.20
2022-12-04T03:02:26.773Z,28.38
2022-12-04T03:05:02.504Z,32.83
2022-12-04T03:08:21.901Z,30.35
2022-12-04T03:10:54.900Z,25.17
2022-12-04T03:13:30.701Z,29.60
2022-12-04T03:16:06.039Z,34.03
2022-12-04T03:18:42.769Z,25.87
2022-12-04T03:21:21.206Z,31.30
2022-12-04T03:23:56.615Z,26.55
2022-12-04T03:26:30.741Z,29.23
2022-12-04T03:29:08.674Z,27.33
2022-12-04T03:31:44.632Z,27.40
2022-12-04T03:34:17.437Z,31.08
2022-12-04T03:36:52.343Z,23.73
2022-12-04T03:39:26.689Z,25.90
2022-12-04T03:42:01.704Z,26.85
2022-12-04T03:44:40.372Z,26.33
2022-12-04T03:47:16.776Z,24.83
2022-12-04T03:49:51.101Z,24.45
2022-12-04T03:52:25.009Z,26.48
2022-12-04T03:55:02.602Z,29.90
2022-12-04T03:57:35.307Z,26.10
2022-12-04T04:00:10.292Z,24.35
2022-12-04T04:02:46.215Z,25.65
2022-12-04T04:05:17.094Z,26.13
2022-12-04T04:07:53.053Z,22.67
2022-12-04T04:10:26.265Z,33.37
2022-12-04T04:13:13.905Z,27.30
2022-12-04T04:16:05.539Z,24.58
2022-12-04T04:18:54.773Z,25.65
2022-12-04T04:21:48.639Z,20.00
2022-12-04T04:24:30.279Z,21.53
2022-12-04T04:27:00.982Z,18.73
2022-12-04T04:29:30.641Z,20.98
2022-12-04T04:32:06.607Z,20.25
2022-12-04T04:34:44.797Z,24.25
2022-12-04T04:37:23.549Z,22.93
2022-12-04T04:40:02.889Z,23.92
2022-12-04T04:42:36.483Z,20.23
2022-12-04T04:45:10.013Z,19.45
2022-12-04T04:47:45.761Z,22.90
2022-12-04T04:50:18.539Z,20.30
2022-12-04T04:52:51.489Z,22.17
2022-12-04T04:55:22.593Z,20.20
2022-12-04T04:57:52.622Z,16.98
2022-12-04T05:00:24.499Z,20.30
2022-12-04T05:02:54.699Z,26.87
2022-12-04T05:05:25.752Z,20.63
2022-12-04T05:07:55.127Z,17.00
2022-12-04T05:10:25.725Z,20.23
2022-12-04T05:12:55.172Z,21.15
2022-12-04T05:15:24.506Z,18.30
2022-12-04T05:17:53.974Z,19.65
2022-12-04T05:20:24.032Z,15.73
2022-12-04T05:22:53.484Z,22.05
2022-12-04T05:25:22.858Z,18.15
2022-12-04T05:27:52.289Z,18.83
2022-12-04T05:30:21.892Z,21.20
2022-12-04T05:32:51.460Z,16.67
2022-12-04T05:35:20.814Z,17.13
2022-12-04T05:37:51.671Z,17.65
2022-12-04T05:40:21.811Z,21.60
2022-12-04T05:42:51.232Z,15.38
2022-12-04T05:45:21.513Z,18.77
2022-12-04T05:47:51.059Z,17.20
2022-12-04T05:50:20.489Z,16.58
2022-12-04T05:52:49.935Z,21.47
2022-12-04T05:55:20.854Z,16.10
2022-12-04T05:57:50.293Z,17.70
2022-12-04T06:00:20.353Z,19.40
2022-12-04T06:02:49.838Z,17.58
2022-12-04T06:05:19.442Z,15.60
2022-12-04T06:07:48.895Z,15.82
2022-12-04T06:10:18.321Z,15.73
2022-12-04T06:12:49.265Z,16.42
2022-12-04T06:15:18.721Z,15.85
2022-12-04T06:17:51.449Z,15.03
2022-12-04T06:20:20.892Z,20.80
2022-12-04T06:22:50.430Z,17.38
2022-12-04T06:25:19.857Z,17.70
2022-12-04T06:27:50.690Z,19.63
2022-12-04T06:30:20.127Z,16.30
2022-12-04T06:32:49.713Z,14.68
2022-12-04T06:35:19.247Z,14.52
2022-12-04T06:37:48.614Z,16.08
2022-12-04T06:40:18.720Z,16.88
2022-12-04T06:42:48.338Z,18.63
2022-12-04T06:45:19.593Z,17.00
2022-12-04T06:47:49.113Z,17.90
2022-12-04T06:50:18.752Z,21.92
2022-12-04T06:52:48.312Z,20.23
2022-12-04T06:55:17.941Z,21.67
2022-12-04T06:57:47.783Z,17.40
2022-12-04T07:00:19.559Z,18.58
2022-12-04T07:02:49.298Z,18.33
2022-12-04T07:05:18.823Z,17.10
2022-12-04T07:07:48.560Z,19.87
2022-12-04T07:10:18.759Z,16.83
2022-12-04T07:12:48.501Z,20.05
2022-12-04T07:15:26.993Z,18.58
2022-12-04T07:17:56.758Z,18.95
2022-12-04T07:20:26.419Z,17.30
2022-12-04T07:22:56.914Z,21.70
2022-12-04T07:25:28.033Z,19.80
2022-12-04T07:27:57.982Z,20.60
2022-12-04T07:30:29.010Z,19.30
2022-12-04T07:32:58.390Z,20.87
2022-12-04T07:35:28.005Z,20.33
2022-12-04T07:37:57.512Z,15.98
2022-12-04T07:40:26.942Z,21.88
2022-12-04T07:42:56.876Z,17.65
2022-12-04T07:45:26.440Z,22.37
2022-12-04T07:47:57.291Z,24.67
2022-12-04T07:50:26.784Z,19.70
2022-12-04T07:52:56.301Z,16.83
2022-12-04T07:55:27.633Z,21.70
2022-12-04T07:57:57.163Z,20.03
2022-12-04T08:00:26.802Z,24.73
2022-12-04T08:02:58.135Z,22.52
2022-12-04T08:05:27.811Z,22.33
2022-12-04T08:07:57.516Z,24.83
2022-12-04T08:10:29.793Z,22.53
2022-12-04T08:12:59.541Z,21.90
2022-12-04T08:15:29.363Z,21.92
2022-12-04T08:18:00.453Z,24.20
2022-12-04T08:20:30.758Z,23.48
2022-12-04T08:23:00.315Z,26.10
2022-12-04T08:25:29.925Z,25.08
2022-12-04T08:27:59.574Z,28.35
2022-12-04T08:30:29.200Z,22.90
2022-12-04T08:33:00.846Z,29.73
2022-12-04T08:35:30.665Z,26.13
2022-12-04T08:38:00.381Z,24.52
2022-12-04T08:40:29.929Z,27.88
2022-12-04T08:43:01.905Z,27.13
2022-12-04T08:45:31.437Z,26.83
2022-12-04T08:48:02.412Z,29.13
2022-12-04T08:50:32.721Z,24.73
2022-12-04T08:53:02.242Z,27.73
2022-12-04T08:55:31.674Z,31.60
2022-12-04T08:58:01.122Z,25.70
2022-12-04T09:00:31.771Z,25.53
2022-12-04T09:03:03.033Z,29.00
2022-12-04T09:05:35.472Z,37.10
2022-12-04T09:08:04.991Z,23.98
2022-12-04T09:10:36.251Z,28.77
2022-12-04T09:13:08.474Z,32.10
2022-12-04T09:15:40.716Z,28.92
2022-12-04T09:18:14.182Z,34.58
2022-12-04T09:20:43.901Z,34.85
2022-12-04T09:23:13.345Z,35.65
2022-12-04T09:25:42.958Z,28.20
2022-12-04T09:28:12.773Z,33.33
2022-12-04T09:30:42.522Z,29.10
2022-12-04T09:33:13.633Z,30.23
2022-12-04T09:35:43.073Z,34.05
2022-12-04T09:38:12.449Z,34.13
2022-12-04T09:40:48.447Z,33.22
2022-12-04T09:43:28.077Z,34.25
2022-12-04T09:46:03.052Z,30.80
2022-12-04T09:48:39.264Z,35.03
2022-12-04T09:51:18.725Z,28.43
2022-12-04T09:53:56.045Z,30.38
2022-12-04T09:56:29.448Z,32.47
2022-12-04T09:59:07.234Z,33.42
2022-12-04T10:01:45.465Z,33.80
2022-12-04T10:04:24.014Z,35.53
2022-12-04T10:07:02.063Z,34.53
2022-12-04T10:09:39.570Z,37.33
2022-12-04T10:12:20.388Z,29.50
2022-12-04T10:15:05.259Z,26.65
2022-12-04T10:17:59.791Z,30.53
2022-12-04T10:20:52.177Z,30.27
2022-12-04T10:23:30.442Z,27.17
2022-12-04T10:26:02.012Z,27.55
2022-12-04T10:28:36.043Z,31.20
2022-12-04T10:31:09.234Z,32.03
2022-12-04T10:33:46.929Z,34.30
2022-12-04T10:36:25.807Z,35.10
2022-12-04T10:38:58.701Z,32.22
2022-12-04T10:41:35.189Z,31.30
2022-12-04T10:44:05.198Z,28.50
2022-12-04T10:46:36.962Z,33.40
2022-12-04T10:49:17.923Z,29.98
2022-12-04T10:51:50.770Z,29.05
2022-12-04T10:54:23.017Z,31.65
2022-12-04T10:56:54.815Z,25.27
2022-12-04T10:59:24.872Z,32.55
2022-12-04T11:02:06.752Z,33.28
2022-12-04T11:04:37.522Z,33.47
2022-12-04T11:07:12.424Z,31.50
2022-12-04T11:09:43.362Z,33.93
2022-12-04T11:12:22.714Z,33.50
2022-12-04T11:15:02.135Z,34.88
2022-12-04T11:17:32.071Z,29.48
2022-12-04T11:20:04.922Z,38.28
2022-12-04T11:22:39.148Z,31.97
2022-12-04T11:25:17.358Z,32.63
2022-12-04T11:27:49.934Z,28.10
2022-12-04T11:30:23.732Z,35.60
2022-12-04T11:32:55.608Z,34.00
2022-12-04T11:35:27.966Z,31.60
2022-12-04T11:38:01.132Z,29.30
2022-12-04T11:40:31.921Z,30.85
2022-12-04T11:43:06.224Z,32.10
2022-12-04T11:45:36.219Z,29.05
2022-12-04T11:48:18.717Z,29.03
2022-12-04T11:50:55.062Z,38.08
2022-12-04T11:53:35.559Z,31.02
2022-12-04T11:56:22.480Z,30.15
2022-12-04T11:59:45.763Z,31.42
2022-12-04T12:02:36.573Z,30.20
2022-12-04T12:05:33.472Z,30.85
2022-12-04T12:08:10.086Z,34.67
2022-12-04T12:10:48.050Z,32.25
2022-12-04T12:13:24.642Z,32.72
2022-12-04T12:16:03.832Z,32.77
2022-12-04T12:18:55.694Z,30.92
2022-12-04T12:21:27.983Z,35.60
2022-12-04T12:24:18.831Z,30.17
2022-12-04T12:26:59.332Z,36.90
2022-12-04T12:29:46.902Z,32.03
2022-12-04T12:32:33.747Z,34.75
2022-12-04T12:35:05.260Z,32.25
2022-12-04T12:37:43.245Z,33.15
2022-12-04T12:40:16.903Z,30.00
2022-12-04T12:42:58.398Z,34.63
2022-12-04T12:45:36.629Z,34.45
2022-12-04T12:48:13.758Z,25.88
2022-12-04T12:50:54.744Z,29.73
2022-12-04T12:53:39.772Z,35.35
2022-12-04T12:56:13.287Z,33.83
2022-12-04T12:58:51.352Z,26.90
2022-12-04T13:01:26.870Z,27.08
2022-12-04T13:04:01.813Z,38.47
2022-12-04T13:06:37.668Z,34.55
2022-12-04T13:09:13.288Z,34.13
2022-12-04T13:11:45.215Z,35.60
2022-12-04T13:14:16.333Z,32.67
2022-12-04T13:16:49.972Z,33.05
2022-12-04T13:19:24.411Z,32.80
2022-12-04T13:22:02.832Z,34.63
2022-12-04T13:24:56.443Z,38.42
2022-12-04T13:27:39.533Z,31.23
2022-12-04T13:30:18.120Z,34.83
2022-12-04T13:33:16.066Z,34.92
2022-12-04T13:36:05.614Z,29.30
2022-12-04T13:38:47.484Z,33.63
2022-12-04T13:41:21.040Z,35.30
2022-12-04T13:43:51.756Z,28.88
2022-12-04T13:46:37.753Z,33.95
2022-12-04T13:49:23.019Z,39.83
2022-12-04T13:51:57.624Z,35.92
2022-12-04T13:54:30.823Z,34.42
2022-12-04T13:57:22.532Z,30.73
2022-12-04T14:00:05.359Z,32.17
2022-12-04T14:02:51.041Z,33.03
2022-12-04T14:05:29.248Z,31.33
2022-12-04T14:08:07.614Z,32.25
2022-12-04T14:10:40.579Z,31.20
2022-12-04T14:13:23.276Z,30.17
2022-12-04T14:16:05.762Z,34.57
2022-12-04T14:18:37.562Z,33.47
2022-12-04T14:21:08.959Z,35.78
2022-12-04T14:23:40.703Z,31.13
2022-12-04T14:26:22.552Z,34.58
2022-12-04T14:28:55.273Z,29.93
2022-12-04T14:31:34.825Z,32.03
2022-12-04T14:34:24.106Z,32.50
2022-12-04T14:36:56.622Z,30.25
2022-12-04T14:39:30.221Z,31.52
2022-12-04T14:42:13.484Z,30.40
2022-12-04T14:44:45.815Z,29.23
2022-12-04T14:47:27.933Z,27.88
2022-12-04T14:50:12.370Z,30.88
2022-12-04T14:52:47.486Z,30.13
2022-12-04T14:55:28.602Z,28.27
2022-12-04T14:58:24.209Z,28.25
2022-12-04T15:00:55.126Z,28.10
2022-12-04T15:03:26.202Z,26.58
2022-12-04T15:06:07.531Z,29.23
2022-12-04T15:08:49.473Z,30.43
2022-12-04T15:11:38.282Z,27.92
2022-12-04T15:14:14.633Z,26.02
2022-12-04T15:16:44.747Z,28.92
2022-12-04T15:19:21.430Z,31.45
2022-12-04T15:21:53.828Z,26.37
2022-12-04T15:24:24.641Z,25.27
2022-12-04T15:26:55.707Z,29.98
2022-12-04T15:29:29.912Z,33.72
2022-12-04T15:32:03.831Z,31.73
2022-12-04T15:34:41.214Z,26.77
2022-12-04T15:37:20.840Z,29.35
2022-12-04T15:39:52.621Z,29.00
2022-12-04T15:42:28.850Z,30.50
2022-12-04T15:45:01.481Z,33.38
2022-12-04T15:47:34.872Z,31.20
2022-12-04T15:50:22.257Z,30.77
2022-12-04T15:53:02.243Z,25.77
2022-12-04T15:55:34.383Z,31.05
2022-12-04T15:58:12.193Z,27.38
2022-12-04T16:00:44.876Z,25.00
2022-12-04T16:03:28.698Z,25.20
2022-12-04T16:06:10.313Z,28.15
2022-12-04T16:08:46.278Z,22.85
2022-12-04T16:11:35.641Z,25.88
2022-12-04T16:14:20.178Z,26.37
2022-12-04T16:16:51.974Z,23.08
2022-12-04T16:19:32.562Z,27.08
2022-12-04T16:22:03.606Z,24.55
2022-12-04T16:24:37.024Z,27.02
2022-12-04T16:27:12.853Z,25.80
2022-12-04T16:29:42.767Z,27.45
2022-12-04T16:32:13.790Z,25.35
2022-12-04T16:34:43.845Z,27.13
2022-12-04T16:37:14.857Z,25.52
2022-12-04T16:39:48.880Z,30.90
2022-12-04T16:42:24.313Z,26.05
2022-12-04T16:44:57.413Z,26.75
2022-12-04T16:47:27.535Z,29.10
2022-12-04T16:49:57.227Z,26.00
2022-12-04T16:52:27.043Z,26.10
2022-12-04T16:55:03.038Z,24.23
2022-12-04T16:57:34.615Z,26.05
2022-12-04T17:00:10.611Z,25.50
2022-12-04T17:02:41.183Z,23.50
2022-12-04T17:05:20.376Z,23.83
2022-12-04T17:07:50.739Z,26.17
2022-12-04T17:10:24.264Z,24.42
2022-12-04T17:12:58.223Z,24.60
2022-12-04T17:15:31.022Z,23.02
2022-12-04T17:18:03.666Z,27.27
2022-12-04T17:20:37.451Z,25.02
2022-12-04T17:23:07.079Z,23.08
2022-12-04T17:25:38.430Z,21.35
2022-12-04T17:28:08.242Z,23.65
2022-12-04T17:30:38.060Z,25.40
2022-12-04T17:33:07.893Z,21.17
2022-12-04T17:35:37.593Z,24.52
2022-12-04T17:38:07.486Z,23.05
2022-12-04T17:40:38.717Z,23.20
2022-12-04T17:43:08.283Z,23.80
2022-12-04T17:45:42.916Z,22.58
2022-12-04T17:48:12.521Z,22.25
2022-12-04T17:50:42.232Z,23.20
2022-12-04T17:53:11.988Z,21.85
2022-12-04T17:55:43.064Z,22.00
2022-12-04T17:58:12.678Z,22.63
2022-12-04T18:00:42.511Z,23.73
2022-12-04T18:03:12.404Z,23.73
2022-12-04T18:05:42.023Z,23.63
2022-12-04T18:08:11.913Z,22.10
2022-12-04T18:10:43.212Z,22.30
2022-12-04T18:13:12.932Z,24.13
2022-12-04T18:15:43.119Z,22.90
2022-12-04T18:18:12.889Z,22.17
2022-12-04T18:20:42.582Z,24.43
2022-12-04T18:23:12.473Z,22.83
2022-12-04T18:25:43.624Z,22.83
2022-12-04T18:28:13.253Z,23.95
2022-12-04T18:30:42.731Z,21.38
2022-12-04T18:33:16.079Z,24.67
2022-12-04T18:35:58.402Z,22.63
2022-12-04T18:38:30.240Z,24.63
2022-12-04T18:41:08.529Z,24.98
2022-12-04T18:43:40.287Z,21.13
2022-12-04T18:46:14.837Z,22.40
2022-12-04T18:48:45.689Z,22.83
2022-12-04T18:51:23.303Z,23.88
2022-12-04T18:53:55.712Z,24.10
2022-12-04T18:56:27.104Z,21.20
2022-12-04T18:59:00.900Z,21.40
2022-12-04T19:01:31.784Z,20.98
2022-12-04T19:04:03.244Z,22.83
2022-12-04T19:06:34.550Z,24.20
2022-12-04T19:09:07.975Z,26.90
2022-12-04T19:11:44.022Z,24.67
2022-12-04T19:14:22.482Z,21.50
2022-12-04T19:16:53.186Z,21.48
2022-12-04T19:19:26.308Z,20.20
2022-12-04T19:21:59.349Z,21.55
2022-12-04T19:24:28.966Z,22.20
2022-12-04T19:27:01.995Z,22.92
2022-12-04T19:29:34.563Z,20.65
2022-12-04T19:32:04.442Z,21.15
2022-12-04T19:34:34.270Z,19.88
2022-12-04T19:37:05.113Z,25.20
2022-12-04T19:39:35.440Z,18.90
2022-12-04T19:42:06.974Z,21.48
2022-12-04T19:44:48.495Z,18.73
2022-12-04T19:47:20.522Z,17.50
2022-12-04T19:49:50.429Z,19.53
2022-12-04T19:52:20.179Z,21.30
2022-12-04T19:54:52.124Z,20.88
2022-12-04T19:57:25.822Z,18.98
2022-12-04T19:59:55.632Z,24.52
2022-12-04T20:02:28.180Z,21.17
2022-12-04T20:05:00.383Z,23.08
2022-12-04T20:07:30.033Z,20.88
2022-12-04T20:10:00.020Z,22.63
2022-12-04T20:12:31.879Z,20.40
2022-12-04T20:15:04.744Z,19.30
2022-12-04T20:17:34.538Z,25.27
2022-12-04T20:20:04.192Z,20.05
2022-12-04T20:22:35.167Z,22.77
2022-12-04T20:25:05.063Z,22.30
2022-12-04T20:27:36.231Z,21.87
2022-12-04T20:30:06.932Z,22.08
2022-12-04T20:32:39.147Z,24.60
2022-12-04T20:35:09.997Z,22.40
2022-12-04T20:37:39.622Z,24.55
2022-12-04T20:40:12.760Z,23.83
2022-12-04T20:42:44.048Z,24.52
2022-12-04T20:45:13.922Z,18.70
2022-12-04T20:47:43.492Z,22.20
2022-12-04T20:50:13.477Z,24.70
2022-12-04T20:52:43.194Z,23.20
2022-12-04T20:55:12.883Z,28.20
2022-12-04T20:57:44.056Z,29.42
2022-12-04T21:00:16.837Z,21.02
2022-12-04T21:02:46.704Z,25.30
2022-12-04T21:05:17.042Z,23.80
2022-12-04T21:07:49.709Z,25.40
2022-12-04T21:10:19.643Z,23.95
2022-12-04T21:13:08.207Z,21.13
2022-12-04T21:15:55.270Z,24.33
2022-12-04T21:18:25.112Z,22.87
2022-12-04T21:20:54.772Z,17.92
2022-12-04T21:23:26.651Z,25.02
2022-12-04T21:25:57.810Z,25.52
2022-12-04T21:28:29.070Z,27.75
2022-12-04T21:31:05.836Z,27.13
2022-12-04T21:33:36.144Z,26.60
2022-12-04T21:36:07.438Z,22.50
2022-12-04T21:38:37.851Z,21.38
2022-12-04T21:41:09.433Z,24.77
2022-12-04T21:43:43.282Z,21.00
2022-12-04T21:46:12.837Z,22.83
2022-12-04T21:48:44.353Z,26.08
2022-12-04T21:51:39.909Z,20.30
2022-12-04T21:54:03.728Z,26.35
2022-12-04T21:56:33.642Z,26.13
2022-12-04T21:59:06.419Z,25.85
2022-12-04T22:01:36.339Z,23.17
2022-12-04T22:04:06.217Z,20.42
2022-12-04T22:06:38.108Z,21.13
2022-12-04T22:09:09.889Z,25.43
2022-12-04T22:11:43.600Z,25.50
2022-12-04T22:14:14.869Z,25.33
2022-12-04T22:16:44.774Z,25.70
2022-12-04T22:19:16.125Z,24.88
2022-12-04T22:21:48.659Z,28.27
2022-12-04T22:24:18.421Z,23.73
2022-12-04T22:26:48.093Z,24.40
2022-12-04T22:29:49.735Z,28.27
2022-12-04T22:32:08.536Z,24.13
2022-12-04T22:34:37.892Z,25.00
2022-12-04T22:37:10.263Z,24.08
2022-12-04T22:39:39.689Z,24.65
2022-12-04T22:42:09.109Z,25.77
2022-12-04T22:44:40.021Z,21.88
2022-12-04T22:47:09.627Z,24.27
2022-12-04T22:49:39.212Z,22.17
2022-12-04T22:52:09.886Z,25.15
2022-12-04T22:54:39.513Z,26.10
2022-12-04T22:57:09.329Z,24.15
2022-12-04T22:59:42.661Z,24.03
2022-12-04T23:02:14.715Z,26.10
2022-12-04T23:04:44.772Z,24.88
2022-12-04T23:07:14.352Z,24.65
2022-12-04T23:09:43.974Z,24.40
2022-12-04T23:12:15.256Z,24.37
2022-12-04T23:14:47.882Z,24.48
2022-12-04T23:17:18.264Z,19.77
2022-12-04T23:19:47.745Z,27.20
2022-12-04T23:22:17.507Z,24.38
2022-12-04T23:24:47.340Z,22.83
2022-12-04T23:27:16.836Z,25.88
2022-12-04T23:29:55.205Z,24.98
2022-12-04T23:32:27.933Z,21.17
2022-12-04T23:34:57.731Z,28.73
2022-12-04T23:37:27.412Z,26.10
2022-12-04T23:40:02.093Z,24.77
2022-12-04T23:42:35.299Z,24.63
2022-12-04T23:45:09.072Z,26.48
2022-12-04T23:47:38.743Z,22.70
2022-12-04T23:50:09.391Z,22.33
2022-12-04T23:52:39.004Z,23.10
2022-12-04T23:55:11.689Z,24.65
2022-12-04T23:57:42.225Z,22.67
